Chisholm Hibbing Airport
KHIB : now visible

Airfield :











YOU CAN JOIN US ON...

 
LOGIN :

Register | Disclaimer

   EN    FR    IT 

 









Legend :    VFR   Marginal VFR   IFR   Intensive IFR   Very Intensive IFR
Visi :
Ceiling :
>= 8 km
>= 3000ft
5 to 8 km
1000 to 3000 ft
1500m to 5 km
500 to 1000 ft
800 to 1500m
200 to 500 ft
< 800m
< 200 ft
Symbols :   Thunderstorms  Fog  Heavy snow  Heavy precipitations  Wind > 20 kt






- Airport Elevation : 1354 ft
- IATA code : HIB


KHIB - Chisholm Hibbing

CURRENT METAR :
  • 031353Z AUTO 00000KT 10SM OVC060 14/09 A3024 RMK AO2 SLP243 T01390094

EXPIRED METARs :
  • 031253Z AUTO 00000KT 10SM FEW060 11/09 A3023 RMK AO2 SLP242 T01110089
  • 031153Z AUTO 32003KT 10SM CLR 07/06 A3022 RMK AO2 SLP240 T00720061 10122 20044 53014

TAF KHIB
Valid from the 03 at 12:00 until the 04 at 12:00 UTC


031130Z 0312/0412 02003KT P6SM FEW040 BKN060
KZMP FIR / North America



MET'MAP, your aeronautical weather chart ! - Copyright ORBIFLY December 2007 - Disclaimer

ORBIFLY MET'MAP TEAM :

Programming & Development : Alexandra Zaïnal
Concept & original design : Baudouin d'Aumeries
Assistance for programming : Marc-Olivier Méhu
Technical & hardware support : Manuel Goepfert

Contact : metmap@orbifly.com




SOURCES & CREDITS :

   NOAA       Earth
Advisory